Campanya meteocatpedra

Dades de l'estació automàtica Lleida - la Bordeta

?
?
Resum diari 20:30 TU
Dades diàries de l'estació meteorològica
Temperatura mitjana 19.9 °C
Temperatura màxima 29.0 °C 14:56 TU
Temperatura mínima 12.3 °C 5:54 TU
Humitat relativa mitjana 76%
Precipitació acumulada 0.0 mm
Ratxa màxima del vent (2 m) 10.4 km/h - 318º 11:10 TU

El tram horari està expressat en Temps Universal (TU). Cal sumar una hora en horari d'hivern i dues en horari d'estiu per passar a l'hora oficial.

Lleida - la Bordeta

Metadades estació meteorol´gica
Municipi Lleida
Comarca Segrià
Altitud 165 m
Data alta 24.07.2013
Estat actual Operativa
Dades de període
Període
TU
TM
°C
TX
°C
TN
°C
HRM
%
PPT
mm
VVM (2 m)
km/h
DVM (2 m)
graus
VVX (2 m)
km/h
00:00 - 00:30 14.7 15.0 14.6 95 0.0 0.0 50 1.8
00:30 - 01:00 14.7 15.0 14.5 96 0.0 0.0 44 2.5
01:00 - 01:30 14.8 14.9 14.5 96 0.0 0.4 22 2.9
01:30 - 02:00 14.4 14.5 14.3 96 0.0 0.0 23 2.2
02:00 - 02:30 14.1 14.4 13.8 96 0.0 0.0 26 2.5
02:30 - 03:00 14.3 14.4 14.1 97 0.0 0.7 31 3.2
03:00 - 03:30 13.9 14.1 13.7 96 0.0 0.0 21 2.5
03:30 - 04:00 13.5 13.7 13.4 97 0.0 0.0 22 2.2
04:00 - 04:30 13.3 13.4 13.2 97 0.0 0.0 0 0.0
04:30 - 05:00 13.1 13.4 12.9 97 0.0 0.4 23 1.8
05:00 - 05:30 12.9 13.2 12.8 97 0.0 0.0 0 0.0
05:30 - 06:00 12.6 12.8 12.3 97 0.0 0.0 0 0.0
06:00 - 06:30 12.8 13.3 12.4 98 0.0 0.0 0 0.0
06:30 - 07:00 13.9 14.3 13.3 98 0.0 0.0 0 0.0
07:00 - 07:30 14.6 14.8 14.1 96 0.0 0.4 222 4.7
07:30 - 08:00 15.3 15.6 14.8 94 0.0 1.4 219 6.5
08:00 - 08:30 16.3 16.9 15.6 90 0.0 1.4 226 5.0
08:30 - 09:00 17.4 17.7 17.0 87 0.0 1.8 232 6.1
09:00 - 09:30 18.4 19.5 17.7 83 0.0 1.8 295 5.0
09:30 - 10:00 20.5 21.0 19.8 75 0.0 1.4 269 6.8
10:00 - 10:30 21.3 21.9 20.9 72 0.0 2.5 274 7.2
10:30 - 11:00 22.5 23.0 21.7 69 0.0 2.2 265 5.8
11:00 - 11:30 23.4 23.8 22.6 67 0.0 3.2 279 10.4
11:30 - 12:00 24.5 25.5 23.6 62 0.0 3.6 229 8.6
12:00 - 12:30 25.4 25.9 24.9 59 0.0 2.9 242 8.6
12:30 - 13:00 26.1 26.8 25.4 56 0.0 2.9 254 9.4
13:00 - 13:30 26.6 27.2 25.9 51 0.0 3.2 280 9.0
13:30 - 14:00 27.5 28.2 26.4 47 0.0 2.2 258 8.3
14:00 - 14:30 28.1 28.8 27.3 44 0.0 2.5 237 6.8
14:30 - 15:00 28.3 29.0 27.8 45 0.0 2.5 245 9.0
15:00 - 15:30 28.5 28.9 28.0 45 0.0 2.2 268 7.9
15:30 - 16:00 28.4 28.8 28.1 46 0.0 2.2 236 6.5
16:00 - 16:30 28.6 28.9 28.3 46 0.0 1.4 228 4.7
16:30 - 17:00 28.6 28.9 27.9 48 0.0 0.4 231 2.5
17:00 - 17:30 26.6 27.9 24.1 60 0.0 0.0 0 0.0
17:30 - 18:00 23.1 24.1 22.0 66 0.0 0.0 0 0.0
18:00 - 18:30 21.1 21.9 20.4 73 0.0 0.0 192 1.1
18:30 - 19:00 21.4 22.0 20.4 71 0.0 0.4 155 3.6
19:00 - 19:30 20.8 21.4 20.4 74 0.0 0.4 132 2.5
19:30 - 20:00 20.7 20.9 20.4 73 0.0 0.0 161 1.4
20:00 - 20:30 20.1 20.8 18.8 75 0.0 0.4 352 4.0
20:30 - 21:00 18.9 19.6 18.5 81 0.0 0.0 186 2.5

Les dades en taronja només han passat un control de qualitat automàtic. Resta pendent la seva validació definitiva.